Christina O — C6FN7 — position and weather

sailwx.info

Track history (hours):
 
Tides and Currents Weather Stations Pressure Air Temp Water Temp Dewpoint Dewpoint Depression Visibility Wind Speed Wind Dir Waves Ship Positions

Christina O

Operator: V Ships Leisure SAM

Last reported at 2016-Aug-30 23:34 UTC. Time now 2016-Aug-31 00:29 UTC.
Position N 60°00' E 026°52'.

Length 186 m; draft 6.1 m.

Type: Passenger vessel. MMSI: 308322000.

Date/timePositionNaut miles runAvg speedWind from/ knotsBaromVisibWave heightAir tempDewpointWater temp
2016-Aug-30 23:34N 60°00' E 026°52'1414.2
2016-Aug-30 22:33N 60°04' E 027°20'1514.9
2016-Aug-30 21:33N 60°12' E 027°45'1514.9
2016-Aug-30 20:33N 60°08' E 028°14'1414.4
2016-Aug-30 19:33N 60°03' E 028°41'1515.0
2016-Aug-30 18:31N 60°02' E 029°12'1311.7
2016-Aug-30 17:27N 60°00' E 029°37'1112.0
2016-Aug-30 16:33N 59°56' E 029°57'9 8.8
2016-Aug-30 15:33N 59°54' E 030°14'2 2.2
2016-Aug-30 14:28N 59°56' E 030°17'0 0.0
2016-Aug-30 13:31N 59°56' E 030°17'0 0.0
2016-Aug-30 12:31N 59°56' E 030°17'0 0.0
2016-Aug-30 11:31N 59°56' E 030°17'0 0.0
2016-Aug-30 10:31N 59°56' E 030°17'0 0.0
2016-Aug-30 09:31N 59°56' E 030°17'0 0.0
2016-Aug-30 08:31N 59°56' E 030°17'0 0.0
2016-Aug-30 07:31N 59°56' E 030°17'0 0.0
2016-Aug-30 06:31N 59°56' E 030°17'0 0.0
2016-Aug-30 05:31N 59°56' E 030°17'0 0.0
2016-Aug-30 04:31N 59°56' E 030°17'0 0.0
2016-Aug-30 03:31N 59°56' E 030°17'0 0.0
2016-Aug-30 02:31N 59°56' E 030°17'0 0.0
2016-Aug-30 01:31N 59°56' E 030°17'0 0.0
2016-Aug-30 00:31N 59°56' E 030°17'0 0.0
2016-Aug-29 23:31N 59°56' E 030°17'0 0.0
2016-Aug-29 22:31N 59°56' E 030°17'0 0.0
2016-Aug-29 21:31N 59°56' E 030°17'0 0.0
2016-Aug-29 20:31N 59°56' E 030°17'0 0.0
2016-Aug-29 19:31N 59°56' E 030°17'0 0.0
2016-Aug-29 18:31N 59°56' E 030°17'0 0.0
2016-Aug-29 17:31N 59°56' E 030°17'0 0.0
2016-Aug-29 16:31N 59°56' E 030°17'0 0.0
2016-Aug-29 15:31N 59°56' E 030°17'0 0.0
2016-Aug-29 14:31N 59°56' E 030°17'0 0.0
2016-Aug-29 13:31N 59°56' E 030°17'0 0.0
2016-Aug-29 12:31N 59°56' E 030°17'0 0.0
2016-Aug-29 11:31N 59°56' E 030°17'0 0.0
2016-Aug-29 10:31N 59°56' E 030°17'0 0.0
2016-Aug-29 09:31N 59°56' E 030°17'0 0.0
2016-Aug-29 08:31N 59°56' E 030°17'0 0.0
2016-Aug-29 07:31N 59°56' E 030°17'0 0.0
2016-Aug-29 06:31N 59°56' E 030°17'0 0.0
2016-Aug-29 05:33N 59°56' E 030°17'1 1.3
2016-Aug-29 04:33N 59°55' E 030°16'6 5.7
2016-Aug-29 03:33N 59°54' E 030°04'1111.2
2016-Aug-29 02:33N 59°59' E 029°44'1211.6
2016-Aug-29 01:33N 60°01' E 029°21'1414.4
2016-Aug-29 00:34N 60°02' E 028°53'1414.2
2016-Aug-28 23:34N 60°03' E 028°24'1413.9
2016-Aug-28 22:34N 60°10' E 027°60'1313.3
2016-Aug-28 21:33N 60°07' E 027°33'1414.2
2016-Aug-28 20:33N 59°59' E 027°09'1413.7
2016-Aug-28 19:34N 59°59' E 026°41'1413.7
2016-Aug-28 18:33N 59°56' E 026°15'1413.6
2016-Aug-28 17:30N 59°51' E 025°48'2613.5
2016-Aug-28 15:33N 59°44' E 024°58'1212.2
2016-Aug-28 14:34N 59°35' E 024°42'8 7.7
2016-Aug-28 13:33N 59°27' E 024°46'0 0.1
2016-Aug-28 12:33N 59°27' E 024°46'0 0.1
2016-Aug-28 11:32N 59°27' E 024°46'0 0.1
2016-Aug-28 10:29N 59°27' E 024°46'0 0.1
2016-Aug-28 09:32N 59°27' E 024°46'0 0.1
2016-Aug-28 08:32N 59°27' E 024°46'0 0.1
2016-Aug-28 07:29N 59°27' E 024°46'0 0.0
2016-Aug-28 06:33N 59°27' E 024°46'0 0.0
2016-Aug-28 05:32N 59°27' E 024°46'0 0.3
2016-Aug-28 04:34N 59°27' E 024°46'9 9.1
2016-Aug-28 03:33N 59°30' E 024°28'24614.4
2016-Aug-27 10:30N 56°51' E 018°33'1414.9
2016-Aug-27 09:33N 56°42' E 018°13'1815.0
2016-Aug-27 08:22N 56°31' E 017°48'1215.0
2016-Aug-27 07:33N 56°23' E 017°31'5115.0
2016-Aug-27 04:08N 55°54' E 016°15'1014.8
2016-Aug-27 03:29N 55°49' E 016°00'1414.9
2016-Aug-27 02:33N 55°43' E 015°39'1515.4
2016-Aug-27 01:33N 55°35' E 015°15'1515.2
2016-Aug-27 00:34N 55°28' E 014°52'1414.4
2016-Aug-26 23:34N 55°19' E 014°32'1313.4
2016-Aug-26 22:34N 55°10' E 014°13'1515.2
2016-Aug-26 21:33N 55°11' E 013°47'1515.1
2016-Aug-26 20:33N 55°11' E 013°20'1514.9
2016-Aug-26 19:34N 55°14' E 012°55'1212.4
2016-Aug-26 18:33N 55°23' E 012°39'1313.4
2016-Aug-26 17:33N 55°36' E 012°42'8 7.5
2016-Aug-26 16:33N 55°43' E 012°38'1 1.2
2016-Aug-26 15:33N 55°42' E 012°36'0 0.0
2016-Aug-26 14:33N 55°42' E 012°36'0 0.0
2016-Aug-26 13:33N 55°42' E 012°36'0 0.0
2016-Aug-26 12:33N 55°42' E 012°36'0 0.0
2016-Aug-26 11:33N 55°42' E 012°36'0 0.0
2016-Aug-26 10:33N 55°42' E 012°36'0 0.0
2016-Aug-26 09:33N 55°42' E 012°36'0 0.0
2016-Aug-26 08:33N 55°42' E 012°36'0 0.0
2016-Aug-26 07:33N 55°42' E 012°36'0 0.0
2016-Aug-26 06:33N 55°42' E 012°36'2 0.8
2016-Aug-26 04:33N 55°43' E 012°38'1010.4
2016-Aug-26 03:34N 55°33' E 012°42'1413.5
2016-Aug-26 02:34N 55°20' E 012°41'1414.0
2016-Aug-26 01:34N 55°16' E 013°05'1514.7
2016-Aug-26 00:33N 55°15' E 013°30'1514.7
2016-Aug-25 23:34N 55°14' E 013°56'1413.7
2016-Aug-25 22:34N 55°16' E 014°20'1514.6
2016-Aug-25 21:34N 55°27' E 014°36'1514.6
2016-Aug-25 20:34N 55°35' E 014°59'1514.6
2016-Aug-25 19:34N 55°42' E 015°21'1514.8
2016-Aug-25 18:34N 55°50' E 015°44'1514.5
2016-Aug-25 17:33N 55°57' E 016°06'1714.7
2016-Aug-25 16:23N 56°05' E 016°33'2714.8
2016-Aug-25 14:33N 56°21' E 017°12'1414.3
2016-Aug-25 13:33N 56°30' E 017°33'10013.8
2016-Aug-25 06:21N 57°44' E 019°37'2513.8
2016-Aug-25 04:33N 58°03' E 020°05'3313.9
2016-Aug-25 02:09N 58°30' E 020°43'913.9
2016-Aug-25 01:32N 58°37' E 020°53'3213.7
2016-Aug-24 23:10N 59°03' E 021°31'813.5
2016-Aug-24 22:33N 59°09' E 021°40'1413.9
2016-Aug-24 21:34N 59°18' E 022°02'1413.7
2016-Aug-24 20:34N 59°26' E 022°23'1313.4
2016-Aug-24 19:33N 59°32' E 022°46'1413.7
2016-Aug-24 18:34N 59°36' E 023°12'1413.7
2016-Aug-24 17:34N 59°41' E 023°38'1413.9
2016-Aug-24 16:34N 59°45' E 024°04'1513.9
2016-Aug-24 15:30N 59°50' E 024°31'33 2.5
2016-Aug-24 02:09N 59°55' E 025°36'915.1
2016-Aug-24 01:32N 59°57' E 025°54'1515.0
2016-Aug-24 00:34N 60°00' E 026°22'1514.8
2016-Aug-23 23:34N 60°00' E 026°52'1414.2
2016-Aug-23 22:33N 60°04' E 027°19'1514.9
2016-Aug-23 21:33N 60°12' E 027°45'1514.5
2016-Aug-23 20:33N 60°08' E 028°13'1414.1
2016-Aug-23 19:33N 60°03' E 028°39'1514.7
2016-Aug-23 18:32N 60°02' E 029°09'1313.2
2016-Aug-23 17:32N 60°01' E 029°36'1211.6
2016-Aug-23 16:32N 59°56' E 029°57'8 8.5
2016-Aug-23 15:33N 59°54' E 030°13'3 2.7
2016-Aug-23 14:30N 59°56' E 030°17'0 0.0
2016-Aug-23 13:33N 59°56' E 030°17'0 0.0
2016-Aug-23 12:33N 59°56' E 030°17'0 0.0
2016-Aug-23 11:33N 59°56' E 030°17'0 0.0
2016-Aug-23 10:33N 59°56' E 030°17'0 0.0
2016-Aug-23 09:33N 59°56' E 030°17'0 0.0
2016-Aug-23 08:33N 59°56' E 030°17'0 0.0
2016-Aug-23 07:33N 59°56' E 030°17'0 0.0
2016-Aug-23 06:33N 59°56' E 030°17'0 0.0
2016-Aug-23 05:33N 59°56' E 030°17'0 0.0
2016-Aug-23 04:33N 59°56' E 030°17'0 0.0
2016-Aug-23 03:33N 59°56' E 030°17'0 0.0
2016-Aug-23 02:33N 59°56' E 030°17'0 0.0
2016-Aug-23 01:33N 59°56' E 030°17'0 0.0
2016-Aug-23 00:33N 59°56' E 030°17'0 0.0
2016-Aug-22 23:33N 59°56' E 030°17'0 0.0
2016-Aug-22 22:33N 59°56' E 030°17'0 0.0
2016-Aug-22 21:33N 59°56' E 030°17'0 0.0
2016-Aug-22 20:33N 59°56' E 030°17'0 0.0
2016-Aug-22 19:33N 59°56' E 030°17'0 0.0
2016-Aug-22 18:33N 59°56' E 030°17'0 0.0
2016-Aug-22 17:33N 59°56' E 030°17'0 0.0
2016-Aug-22 16:33N 59°56' E 030°17'0 0.0
2016-Aug-22 15:33N 59°56' E 030°17'0 0.0
2016-Aug-22 14:33N 59°56' E 030°17'0 0.0
2016-Aug-22 13:33N 59°56' E 030°17'0 0.0
2016-Aug-22 12:33N 59°56' E 030°17'0 0.0
2016-Aug-22 11:33N 59°56' E 030°17'0 0.0
2016-Aug-22 10:33N 59°56' E 030°17'0 0.0
2016-Aug-22 09:33N 59°56' E 030°17'0 0.0
2016-Aug-22 08:33N 59°56' E 030°17'0 0.0
2016-Aug-22 07:33N 59°56' E 030°17'0 0.0
2016-Aug-22 06:33N 59°56' E 030°17'0 0.0
2016-Aug-22 05:33N 59°56' E 030°17'0 0.0
2016-Aug-22 04:33N 59°56' E 030°17'0 0.0
2016-Aug-22 03:33N 59°56' E 030°17'0 0.0
2016-Aug-22 02:33N 59°56' E 030°17'0 0.0
2016-Aug-22 01:33N 59°56' E 030°17'0 0.0
2016-Aug-22 00:33N 59°56' E 030°17'0 0.0
2016-Aug-21 23:33N 59°56' E 030°17'0 0.0
2016-Aug-21 22:33N 59°56' E 030°17'0 0.0
2016-Aug-21 21:33N 59°56' E 030°17'0 0.0
2016-Aug-21 20:33N 59°56' E 030°17'0 0.0
2016-Aug-21 19:33N 59°56' E 030°17'0 0.0
2016-Aug-21 18:33N 59°56' E 030°17'0 0.0
2016-Aug-21 17:33N 59°56' E 030°17'0 0.0
2016-Aug-21 16:33N 59°56' E 030°17'0 0.0
2016-Aug-21 15:33N 59°56' E 030°17'0 0.0
2016-Aug-21 14:33N 59°56' E 030°17'0 0.0
2016-Aug-21 13:33N 59°56' E 030°17'0 0.0
2016-Aug-21 12:33N 59°56' E 030°17'0 0.0
2016-Aug-21 11:33N 59°56' E 030°17'0 0.0
2016-Aug-21 10:33N 59°56' E 030°17'0 0.0
2016-Aug-21 09:33N 59°56' E 030°17'0 0.0
2016-Aug-21 08:33N 59°56' E 030°17'0 0.0
2016-Aug-21 07:33N 59°56' E 030°17'0 0.0
2016-Aug-21 06:33N 59°56' E 030°17'0 0.0
2016-Aug-21 05:33N 59°56' E 030°17'1 1.0
2016-Aug-21 04:33N 59°55' E 030°16'5 5.3
2016-Aug-21 03:33N 59°54' E 030°06'1211.6
2016-Aug-21 02:33N 59°59' E 029°45'1211.7
2016-Aug-21 01:34N 60°01' E 029°22'1414.2
2016-Aug-21 00:33N 60°02' E 028°54'  
Track history (hours):
 
Tides and Currents Weather Stations Pressure Air Temp Water Temp Dewpoint Dewpoint Depression Visibility Wind Speed Wind Dir Waves Ship Positions

Christina O

Operator: V Ships Leisure SAM

Last reported at 2016-Aug-30 23:34 UTC. Time now 2016-Aug-31 00:29 UTC.
Position N 60°00' E 026°52'.

Length 186 m; draft 6.1 m.

Type: Passenger vessel. MMSI: 308322000.

Date/timePositionNaut miles runAvg speedWind from/ knotsBaromVisibWave heightAir tempDewpointWater temp
2016-Aug-30 23:34N 60°00' E 026°52'1414.2
2016-Aug-30 22:33N 60°04' E 027°20'1514.9
2016-Aug-30 21:33N 60°12' E 027°45'1514.9
2016-Aug-30 20:33N 60°08' E 028°14'1414.4
2016-Aug-30 19:33N 60°03' E 028°41'1515.0
2016-Aug-30 18:31N 60°02' E 029°12'1311.7
2016-Aug-30 17:27N 60°00' E 029°37'1112.0
2016-Aug-30 16:33N 59°56' E 029°57'9 8.8
2016-Aug-30 15:33N 59°54' E 030°14'2 2.2
2016-Aug-30 14:28N 59°56' E 030°17'0 0.0
2016-Aug-30 13:31N 59°56' E 030°17'0 0.0
2016-Aug-30 12:31N 59°56' E 030°17'0 0.0
2016-Aug-30 11:31N 59°56' E 030°17'0 0.0
2016-Aug-30 10:31N 59°56' E 030°17'0 0.0
2016-Aug-30 09:31N 59°56' E 030°17'0 0.0
2016-Aug-30 08:31N 59°56' E 030°17'0 0.0
2016-Aug-30 07:31N 59°56' E 030°17'0 0.0
2016-Aug-30 06:31N 59°56' E 030°17'0 0.0
2016-Aug-30 05:31N 59°56' E 030°17'0 0.0
2016-Aug-30 04:31N 59°56' E 030°17'0 0.0
2016-Aug-30 03:31N 59°56' E 030°17'0 0.0
2016-Aug-30 02:31N 59°56' E 030°17'0 0.0
2016-Aug-30 01:31N 59°56' E 030°17'0 0.0
2016-Aug-30 00:31N 59°56' E 030°17'0 0.0
2016-Aug-29 23:31N 59°56' E 030°17'0 0.0
2016-Aug-29 22:31N 59°56' E 030°17'0 0.0
2016-Aug-29 21:31N 59°56' E 030°17'0 0.0
2016-Aug-29 20:31N 59°56' E 030°17'0 0.0
2016-Aug-29 19:31N 59°56' E 030°17'0 0.0
2016-Aug-29 18:31N 59°56' E 030°17'0 0.0
2016-Aug-29 17:31N 59°56' E 030°17'0 0.0
2016-Aug-29 16:31N 59°56' E 030°17'0 0.0
2016-Aug-29 15:31N 59°56' E 030°17'0 0.0
2016-Aug-29 14:31N 59°56' E 030°17'0 0.0
2016-Aug-29 13:31N 59°56' E 030°17'0 0.0
2016-Aug-29 12:31N 59°56' E 030°17'0 0.0
2016-Aug-29 11:31N 59°56' E 030°17'0 0.0
2016-Aug-29 10:31N 59°56' E 030°17'0 0.0
2016-Aug-29 09:31N 59°56' E 030°17'0 0.0
2016-Aug-29 08:31N 59°56' E 030°17'0 0.0
2016-Aug-29 07:31N 59°56' E 030°17'0 0.0
2016-Aug-29 06:31N 59°56' E 030°17'0 0.0
2016-Aug-29 05:33N 59°56' E 030°17'1 1.3
2016-Aug-29 04:33N 59°55' E 030°16'6 5.7
2016-Aug-29 03:33N 59°54' E 030°04'1111.2
2016-Aug-29 02:33N 59°59' E 029°44'1211.6
2016-Aug-29 01:33N 60°01' E 029°21'1414.4
2016-Aug-29 00:34N 60°02' E 028°53'1414.2
2016-Aug-28 23:34N 60°03' E 028°24'1413.9
2016-Aug-28 22:34N 60°10' E 027°60'1313.3
2016-Aug-28 21:33N 60°07' E 027°33'1414.2
2016-Aug-28 20:33N 59°59' E 027°09'1413.7
2016-Aug-28 19:34N 59°59' E 026°41'1413.7
2016-Aug-28 18:33N 59°56' E 026°15'1413.6
2016-Aug-28 17:30N 59°51' E 025°48'2613.5
2016-Aug-28 15:33N 59°44' E 024°58'1212.2
2016-Aug-28 14:34N 59°35' E 024°42'8 7.7
2016-Aug-28 13:33N 59°27' E 024°46'0 0.1
2016-Aug-28 12:33N 59°27' E 024°46'0 0.1
2016-Aug-28 11:32N 59°27' E 024°46'0 0.1
2016-Aug-28 10:29N 59°27' E 024°46'0 0.1
2016-Aug-28 09:32N 59°27' E 024°46'0 0.1
2016-Aug-28 08:32N 59°27' E 024°46'0 0.1
2016-Aug-28 07:29N 59°27' E 024°46'0 0.0
2016-Aug-28 06:33N 59°27' E 024°46'0 0.0
2016-Aug-28 05:32N 59°27' E 024°46'0 0.3
2016-Aug-28 04:34N 59°27' E 024°46'9 9.1
2016-Aug-28 03:33N 59°30' E 024°28'24614.4
2016-Aug-27 10:30N 56°51' E 018°33'1414.9
2016-Aug-27 09:33N 56°42' E 018°13'1815.0
2016-Aug-27 08:22N 56°31' E 017°48'1215.0
2016-Aug-27 07:33N 56°23' E 017°31'5115.0
2016-Aug-27 04:08N 55°54' E 016°15'1014.8
2016-Aug-27 03:29N 55°49' E 016°00'1414.9
2016-Aug-27 02:33N 55°43' E 015°39'1515.4
2016-Aug-27 01:33N 55°35' E 015°15'1515.2
2016-Aug-27 00:34N 55°28' E 014°52'1414.4
2016-Aug-26 23:34N 55°19' E 014°32'1313.4
2016-Aug-26 22:34N 55°10' E 014°13'1515.2
2016-Aug-26 21:33N 55°11' E 013°47'1515.1
2016-Aug-26 20:33N 55°11' E 013°20'1514.9
2016-Aug-26 19:34N 55°14' E 012°55'1212.4
2016-Aug-26 18:33N 55°23' E 012°39'1313.4
2016-Aug-26 17:33N 55°36' E 012°42'8 7.5
2016-Aug-26 16:33N 55°43' E 012°38'1 1.2
2016-Aug-26 15:33N 55°42' E 012°36'0 0.0
2016-Aug-26 14:33N 55°42' E 012°36'0 0.0
2016-Aug-26 13:33N 55°42' E 012°36'0 0.0
2016-Aug-26 12:33N 55°42' E 012°36'0 0.0
2016-Aug-26 11:33N 55°42' E 012°36'0 0.0
2016-Aug-26 10:33N 55°42' E 012°36'0 0.0
2016-Aug-26 09:33N 55°42' E 012°36'0 0.0
2016-Aug-26 08:33N 55°42' E 012°36'0 0.0
2016-Aug-26 07:33N 55°42' E 012°36'0 0.0
2016-Aug-26 06:33N 55°42' E 012°36'2 0.8
2016-Aug-26 04:33N 55°43' E 012°38'1010.4
2016-Aug-26 03:34N 55°33' E 012°42'1413.5
2016-Aug-26 02:34N 55°20' E 012°41'1414.0
2016-Aug-26 01:34N 55°16' E 013°05'1514.7
2016-Aug-26 00:33N 55°15' E 013°30'1514.7
2016-Aug-25 23:34N 55°14' E 013°56'1413.7
2016-Aug-25 22:34N 55°16' E 014°20'1514.6
2016-Aug-25 21:34N 55°27' E 014°36'1514.6
2016-Aug-25 20:34N 55°35' E 014°59'1514.6
2016-Aug-25 19:34N 55°42' E 015°21'1514.8
2016-Aug-25 18:34N 55°50' E 015°44'1514.5
2016-Aug-25 17:33N 55°57' E 016°06'1714.7
2016-Aug-25 16:23N 56°05' E 016°33'2714.8
2016-Aug-25 14:33N 56°21' E 017°12'1414.3
2016-Aug-25 13:33N 56°30' E 017°33'10013.8
2016-Aug-25 06:21N 57°44' E 019°37'2513.8
2016-Aug-25 04:33N 58°03' E 020°05'3313.9
2016-Aug-25 02:09N 58°30' E 020°43'913.9
2016-Aug-25 01:32N 58°37' E 020°53'3213.7
2016-Aug-24 23:10N 59°03' E 021°31'813.5
2016-Aug-24 22:33N 59°09' E 021°40'1413.9
2016-Aug-24 21:34N 59°18' E 022°02'1413.7
2016-Aug-24 20:34N 59°26' E 022°23'1313.4
2016-Aug-24 19:33N 59°32' E 022°46'1413.7
2016-Aug-24 18:34N 59°36' E 023°12'1413.7
2016-Aug-24 17:34N 59°41' E 023°38'1413.9
2016-Aug-24 16:34N 59°45' E 024°04'1513.9
2016-Aug-24 15:30N 59°50' E 024°31'33 2.5
2016-Aug-24 02:09N 59°55' E 025°36'915.1
2016-Aug-24 01:32N 59°57' E 025°54'1515.0
2016-Aug-24 00:34N 60°00' E 026°22'1514.8
2016-Aug-23 23:34N 60°00' E 026°52'1414.2
2016-Aug-23 22:33N 60°04' E 027°19'1514.9
2016-Aug-23 21:33N 60°12' E 027°45'1514.5
2016-Aug-23 20:33N 60°08' E 028°13'1414.1
2016-Aug-23 19:33N 60°03' E 028°39'1514.7
2016-Aug-23 18:32N 60°02' E 029°09'1313.2
2016-Aug-23 17:32N 60°01' E 029°36'1211.6
2016-Aug-23 16:32N 59°56' E 029°57'8 8.5
2016-Aug-23 15:33N 59°54' E 030°13'3 2.7
2016-Aug-23 14:30N 59°56' E 030°17'0 0.0
2016-Aug-23 13:33N 59°56' E 030°17'0 0.0
2016-Aug-23 12:33N 59°56' E 030°17'0 0.0
2016-Aug-23 11:33N 59°56' E 030°17'0 0.0
2016-Aug-23 10:33N 59°56' E 030°17'0 0.0
2016-Aug-23 09:33N 59°56' E 030°17'0 0.0
2016-Aug-23 08:33N 59°56' E 030°17'0 0.0
2016-Aug-23 07:33N 59°56' E 030°17'0 0.0
2016-Aug-23 06:33N 59°56' E 030°17'0 0.0
2016-Aug-23 05:33N 59°56' E 030°17'0 0.0
2016-Aug-23 04:33N 59°56' E 030°17'0 0.0
2016-Aug-23 03:33N 59°56' E 030°17'0 0.0
2016-Aug-23 02:33N 59°56' E 030°17'0 0.0
2016-Aug-23 01:33N 59°56' E 030°17'0 0.0
2016-Aug-23 00:33N 59°56' E 030°17'0 0.0
2016-Aug-22 23:33N 59°56' E 030°17'0 0.0
2016-Aug-22 22:33N 59°56' E 030°17'0 0.0
2016-Aug-22 21:33N 59°56' E 030°17'0 0.0
2016-Aug-22 20:33N 59°56' E 030°17'0 0.0
2016-Aug-22 19:33N 59°56' E 030°17'0 0.0
2016-Aug-22 18:33N 59°56' E 030°17'0 0.0
2016-Aug-22 17:33N 59°56' E 030°17'0 0.0
2016-Aug-22 16:33N 59°56' E 030°17'0 0.0
2016-Aug-22 15:33N 59°56' E 030°17'0 0.0
2016-Aug-22 14:33N 59°56' E 030°17'0 0.0
2016-Aug-22 13:33N 59°56' E 030°17'0 0.0
2016-Aug-22 12:33N 59°56' E 030°17'0 0.0
2016-Aug-22 11:33N 59°56' E 030°17'0 0.0
2016-Aug-22 10:33N 59°56' E 030°17'0 0.0
2016-Aug-22 09:33N 59°56' E 030°17'0 0.0
2016-Aug-22 08:33N 59°56' E 030°17'0 0.0
2016-Aug-22 07:33N 59°56' E 030°17'0 0.0
2016-Aug-22 06:33N 59°56' E 030°17'0 0.0
2016-Aug-22 05:33N 59°56' E 030°17'0 0.0
2016-Aug-22 04:33N 59°56' E 030°17'0 0.0
2016-Aug-22 03:33N 59°56' E 030°17'0 0.0
2016-Aug-22 02:33N 59°56' E 030°17'0 0.0
2016-Aug-22 01:33N 59°56' E 030°17'0 0.0
2016-Aug-22 00:33N 59°56' E 030°17'0 0.0
2016-Aug-21 23:33N 59°56' E 030°17'0 0.0
2016-Aug-21 22:33N 59°56' E 030°17'0 0.0
2016-Aug-21 21:33N 59°56' E 030°17'0 0.0
2016-Aug-21 20:33N 59°56' E 030°17'0 0.0
2016-Aug-21 19:33N 59°56' E 030°17'0 0.0
2016-Aug-21 18:33N 59°56' E 030°17'0 0.0
2016-Aug-21 17:33N 59°56' E 030°17'0 0.0
2016-Aug-21 16:33N 59°56' E 030°17'0 0.0
2016-Aug-21 15:33N 59°56' E 030°17'0 0.0
2016-Aug-21 14:33N 59°56' E 030°17'0 0.0
2016-Aug-21 13:33N 59°56' E 030°17'0 0.0
2016-Aug-21 12:33N 59°56' E 030°17'0 0.0
2016-Aug-21 11:33N 59°56' E 030°17'0 0.0
2016-Aug-21 10:33N 59°56' E 030°17'0 0.0
2016-Aug-21 09:33N 59°56' E 030°17'0 0.0
2016-Aug-21 08:33N 59°56' E 030°17'0 0.0
2016-Aug-21 07:33N 59°56' E 030°17'0 0.0
2016-Aug-21 06:33N 59°56' E 030°17'0 0.0
2016-Aug-21 05:33N 59°56' E 030°17'1 1.0
2016-Aug-21 04:33N 59°55' E 030°16'5 5.3
2016-Aug-21 03:33N 59°54' E 030°06'1211.6
2016-Aug-21 02:33N 59°59' E 029°45'1211.7
2016-Aug-21 01:34N 60°01' E 029°22'1414.2
2016-Aug-21 00:33N 60°02' E 028°54'  

Dump ship's entire track history